Artesia Wells, TX (78001)

2:25 PM CST on February 13, 2016 (GMT -0600)
Cotulla-La Salle County | | Change Station
CLOSE
Current Station
Airport
Location: Cotulla,
Elevation: 476 ft
Nearby Weather Stations

Elev 476 ft 28.46 °N, 99.22 °W | Updated 32 minutes ago

Clear
Clear
79 °F
Feels Like 79 °F
N
9
Wind Variable Wind from South
Gusts 20 mph

Today
High -- | Low -- °F
--% Chance of Precip.
Yesterday
High -- | Low -- °F
Precip. -- in
Pressure 30.20 in
Visibility 10.0 miles
Clouds Clear
Dew Point 47 °F
Humidity 32%
Rainfall 0.00 in
Snow Depth Not available.
7:16 AM 6:26 PM
Waxing Crescent, 34% visible
METAR KCOT 131953Z AUTO 18008G17KT 10SM CLR 26/08 A3022 RMK AO2 SLP226 T02610083
Pressure 30.20 in
Visibility 10.0 miles
Clouds Clear
Dew Point 47 °F
Humidity 32%
Rainfall 0.00 in
Snow Depth Not available.
7:16 AM 6:26 PM
Waxing Crescent, 34% visible
METAR KCOT 131953Z AUTO 18008G17KT 10SM CLR 26/08 A3022 RMK AO2 SLP226 T02610083

10-Day Weather Forecast

Almanac

Astronomy

Feb. 13, 2016 Rise Set
Actual Time
Civil Twilight
Nautical Twilight
Astronomical Twilight
Moon
Length of Visible Light
Length of Day
Tomorrow will be .
, % of the Moon is Illuminated

Today's Extremes

State Highs State Lows

Community

WunderPhotos

Upload Photos

1,892,658 photos uploaded!

WunderBlog® & News

Nearby

Air Quality

  Air Quality AQ Index Pollutant
Not available.

Snow Depth

Station Depth Elevation

Earthquake Activity

City Distance Mag. Time & Date
Minimum magnitude displayed is 2.5.

Coastal Water Temperatures

Place Temperature

Stations

Nearby Weather Stations

Station Location Temp. Windchill Dew Point Humidity Wind Precip. Elev Updated Type
                   

Watches & Warnings

There are currently no watches in effect.